Time;durP1;ratioP1;P1;durP2;ratioP2;P2;SDS_P1;SDS_P2;PMS_P1;PMS_P2;Temp;Humidity;BMP_temperature;BMP_pressure;BME280_temperature;BME280_humidity;BME280_pressure;Samples;Min_cycle;Max_cycle;Signal;HPM_P1;HPM_P2
2024/03/13 00:01:42;;;;;;;11.75;9.27;;;10.00;99.20;;;;;;10354709;28;20226;-67
2024/03/13 00:06:47;;;;;;;13.07;9.40;;;10.00;98.60;;;;;;10353192;28;20262;-66
2024/03/13 00:11:52;;;;;;;13.52;9.23;;;10.00;98.70;;;;;;10352718;28;20254;-65
2024/03/13 00:16:56;;;;;;;12.50;9.90;;;10.00;98.80;;;;;;10352207;28;20224;-67
2024/03/13 00:22:01;;;;;;;13.70;9.57;;;10.10;99.00;;;;;;10355240;28;20208;-65
2024/03/13 00:27:06;;;;;;;11.82;9.35;;;10.10;99.20;;;;;;10354393;28;20232;-66
2024/03/13 00:32:10;;;;;;;14.98;9.52;;;10.10;99.00;;;;;;10353194;28;20246;-67
2024/03/13 00:37:15;;;;;;;14.88;10.30;;;10.10;99.20;;;;;;10313456;28;20837;-67
2024/03/13 00:42:19;;;;;;;14.07;9.27;;;10.10;99.30;;;;;;10353600;28;20567;-65
2024/03/13 00:47:23;;;;;;;14.30;9.52;;;10.10;99.00;;;;;;10350885;28;20320;-66
2024/03/13 00:52:29;;;;;;;11.98;9.30;;;10.10;99.00;;;;;;10350644;28;20220;-66
2024/03/13 00:57:32;;;;;;;13.73;10.20;;;10.20;99.10;;;;;;10352198;28;20271;-66
2024/03/13 01:02:36;;;;;;;13.05;9.25;;;10.20;99.60;;;;;;10360437;28;20208;-67
2024/03/13 01:07:41;;;;;;;11.45;8.65;;;10.20;99.30;;;;;;10360949;28;21318;-67
2024/03/13 01:12:45;;;;;;;11.23;9.02;;;10.20;99.90;;;;;;10361493;28;20427;-65
2024/03/13 01:17:49;;;;;;;13.77;9.27;;;10.20;99.60;;;;;;10361178;28;20277;-65
2024/03/13 01:22:56;;;;;;;12.35;9.32;;;10.20;99.80;;;;;;10363368;28;20208;-69
2024/03/13 01:28:00;;;;;;;14.33;9.87;;;10.20;99.60;;;;;;10363546;28;20266;-68
2024/03/13 01:33:04;;;;;;;12.25;9.00;;;10.20;99.70;;;;;;10362197;28;20641;-67
2024/03/13 01:38:09;;;;;;;12.27;8.90;;;10.20;99.50;;;;;;10377626;22;20250;-68
2024/03/13 01:59:23;;;;;;;13.65;9.45;;;10.20;99.60;;;;;;10323834;28;20237;-67
2024/03/13 02:04:26;;;;;;;12.82;9.20;;;10.20;99.60;;;;;;10318441;28;20208;-67
2024/03/13 02:09:31;;;;;;;12.67;8.77;;;10.20;99.80;;;;;;10319552;28;20233;-66
2024/03/13 02:14:35;;;;;;;14.57;9.95;;;10.20;99.80;;;;;;10319791;28;20233;-67
2024/03/13 02:19:40;;;;;;;13.53;9.30;;;10.20;99.80;;;;;;10320915;28;20228;-66
2024/03/13 02:24:45;;;;;;;15.68;10.43;;;10.20;99.90;;;;;;10322072;28;20231;-67
2024/03/13 02:29:51;;;;;;;16.45;11.75;;;10.20;99.90;;;;;;10334323;28;20711;-67
2024/03/13 02:34:56;;;;;;;20.05;13.32;;;10.10;99.90;;;;;;10333551;28;20290;-67
2024/03/13 02:40:00;;;;;;;18.65;12.77;;;10.10;99.90;;;;;;10315773;28;20266;-67
2024/03/13 02:45:05;;;;;;;16.75;13.20;;;10.10;99.90;;;;;;10334203;28;20250;-67
2024/03/13 02:50:11;;;;;;;16.58;11.32;;;10.10;99.90;;;;;;10333384;28;20204;-67
2024/03/13 02:55:14;;;;;;;14.67;10.70;;;10.10;99.90;;;;;;10332734;28;20700;-67
2024/03/13 03:00:19;;;;;;;16.43;12.07;;;10.10;99.90;;;;;;10316754;28;20208;-67
2024/03/13 03:05:22;;;;;;;15.70;10.18;;;10.10;99.90;;;;;;10333989;28;20580;-68
2024/03/13 03:10:26;;;;;;;15.57;11.23;;;10.10;99.90;;;;;;10330578;28;20323;-68
2024/03/13 03:15:33;;;;;;;9.35;6.97;;;10.10;99.90;;;;;;10329225;28;20237;-67
2024/03/13 03:20:37;;;;;;;9.80;6.90;;;10.10;99.90;;;;;;10331799;28;20290;-67
2024/03/13 03:25:41;;;;;;;10.95;7.13;;;10.10;99.90;;;;;;10332305;28;20294;-67
2024/03/13 03:30:46;;;;;;;8.43;6.60;;;10.10;99.90;;;;;;10333011;28;20297;-66
2024/03/13 03:35:50;;;;;;;9.25;6.75;;;10.20;99.90;;;;;;10331868;28;20229;-67
2024/03/13 03:40:54;;;;;;;8.95;7.10;;;10.10;99.90;;;;;;10315758;28;20208;-67
2024/03/13 03:45:58;;;;;;;9.20;6.80;;;10.10;99.90;;;;;;10331367;28;20283;-67
2024/03/13 03:51:01;;;;;;;10.73;7.22;;;10.10;99.90;;;;;;10331339;28;20255;-67
2024/03/13 03:56:07;;;;;;;7.75;6.60;;;10.10;99.90;;;;;;10315512;28;20241;-67
2024/03/13 04:01:11;;;;;;;9.13;7.07;;;10.20;99.90;;;;;;10314383;28;20243;-67
2024/03/13 04:06:16;;;;;;;8.20;6.00;;;10.20;99.90;;;;;;10328620;28;20220;-66
2024/03/13 04:11:20;;;;;;;7.50;6.00;;;10.20;99.90;;;;;;10321353;28;20209;-66
2024/03/13 04:16:24;;;;;;;6.45;5.75;;;10.20;99.90;;;;;;10330785;28;20229;-66
2024/03/13 04:21:28;;;;;;;6.78;5.53;;;10.20;99.90;;;;;;10253517;28;20233;-66
2024/03/13 04:26:34;;;;;;;5.90;5.00;;;10.30;99.90;;;;;;10242540;28;20795;-67
2024/03/13 04:31:39;;;;;;;6.60;4.47;;;10.30;99.90;;;;;;10203171;28;21293;-67
2024/03/13 04:36:44;;;;;;;5.03;4.30;;;10.30;99.90;;;;;;10199662;28;21645;-67
2024/03/13 04:41:49;;;;;;;5.63;4.22;;;10.30;99.90;;;;;;10208382;28;20748;-67
2024/03/13 04:46:53;;;;;;;4.40;3.78;;;10.30;99.90;;;;;;10199693;28;20308;-67
2024/03/13 04:51:57;;;;;;;4.23;3.50;;;10.30;99.90;;;;;;10208309;28;20263;-67
2024/03/13 04:57:01;;;;;;;3.70;3.22;;;10.30;99.90;;;;;;10197763;28;21255;-67
2024/03/13 05:02:04;;;;;;;3.40;3.10;;;10.40;99.90;;;;;;10199085;28;20615;-66
2024/03/13 05:07:10;;;;;;;4.47;3.10;;;10.40;99.90;;;;;;10195166;28;20242;-66
2024/03/13 05:12:14;;;;;;;3.65;2.63;;;10.40;99.90;;;;;;10207970;28;20340;-66
2024/03/13 05:17:18;;;;;;;2.65;2.45;;;10.40;99.90;;;;;;10209186;28;21413;-66
2024/03/13 05:22:22;;;;;;;4.65;3.08;;;10.40;99.90;;;;;;10199285;28;20226;-66
2024/03/13 05:27:26;;;;;;;3.35;3.05;;;10.40;99.90;;;;;;10207390;28;20574;-67
2024/03/13 05:32:30;;;;;;;3.38;3.08;;;10.40;99.90;;;;;;10202565;28;20202;-64
2024/03/13 05:37:34;;;;;;;3.45;3.03;;;10.40;99.90;;;;;;10209974;28;20226;-66
2024/03/13 05:42:41;;;;;;;5.53;4.97;;;10.40;99.90;;;;;;10190981;28;21565;-65
2024/03/13 05:47:45;;;;;;;6.47;4.18;;;10.50;99.90;;;;;;10207779;28;20327;-65
2024/03/13 05:52:49;;;;;;;9.77;7.97;;;10.50;99.90;;;;;;10200103;28;20288;-68
2024/03/13 05:57:55;;;;;;;16.42;10.70;;;10.50;99.90;;;;;;10213993;28;20327;-64
2024/03/13 06:02:59;;;;;;;7.95;7.35;;;10.50;99.90;;;;;;10200840;28;21720;-66
2024/03/13 06:08:03;;;;;;;8.32;7.65;;;10.50;99.90;;;;;;10201825;28;20230;-72
2024/03/13 06:13:06;;;;;;;12.50;11.60;;;10.50;99.90;;;;;;10212544;28;20237;-65
2024/03/13 06:18:12;;;;;;;5.28;4.88;;;10.50;99.90;;;;;;10201569;28;20309;-64
2024/03/13 06:23:16;;;;;;;3.83;3.53;;;10.60;99.90;;;;;;10163238;28;20214;-64
2024/03/13 06:33:41;;;;;;;3.40;3.00;;;10.60;99.90;;;;;;10208196;28;20240;-67
2024/03/13 06:38:46;;;;;;;3.17;2.88;;;10.60;99.90;;;;;;10214340;28;20659;-65
2024/03/13 06:43:50;;;;;;;3.03;2.80;;;10.60;99.90;;;;;;10206503;28;20341;-65
2024/03/13 06:48:54;;;;;;;4.10;3.03;;;10.60;99.90;;;;;;10209794;28;20230;-64
2024/03/13 06:54:00;;;;;;;3.08;2.78;;;10.60;99.90;;;;;;10165616;28;20306;-64
2024/03/13 06:59:03;;;;;;;4.85;4.05;;;10.70;99.90;;;;;;10208504;28;20234;-65
2024/03/13 07:04:08;;;;;;;13.80;9.07;;;10.70;99.90;;;;;;10200375;28;20218;-63
2024/03/13 07:09:13;;;;;;;6.65;4.97;;;10.80;99.90;;;;;;10207985;28;21335;-64
2024/03/13 07:14:17;;;;;;;14.75;12.00;;;10.80;99.90;;;;;;10200754;28;20214;-66
2024/03/13 07:19:22;;;;;;;4.45;3.60;;;10.80;99.90;;;;;;10202360;28;20317;-64
2024/03/13 07:24:25;;;;;;;3.90;3.13;;;10.90;99.90;;;;;;10209684;28;20210;-64
2024/03/13 07:29:29;;;;;;;4.00;3.20;;;10.90;99.90;;;;;;10200189;28;20351;-64
2024/03/13 07:34:33;;;;;;;3.53;2.70;;;11.00;99.90;;;;;;10208989;28;20254;-64
2024/03/13 07:39:37;;;;;;;8.10;7.40;;;11.00;99.90;;;;;;10208889;28;22902;-68
2024/03/13 07:44:41;;;;;;;4.18;3.78;;;11.10;99.90;;;;;;10208435;28;20207;-69
2024/03/13 07:49:45;;;;;;;4.15;3.75;;;11.10;99.90;;;;;;10198057;28;20352;-69
2024/03/13 07:54:49;;;;;;;4.30;4.00;;;11.20;99.90;;;;;;10201274;28;20316;-67
2024/03/13 07:59:53;;;;;;;7.00;6.40;;;11.20;99.90;;;;;;10208296;28;20226;-67
2024/03/13 08:04:58;;;;;;;5.75;4.30;;;11.30;99.90;;;;;;10199704;28;20206;-69
2024/03/13 08:10:01;;;;;;;7.25;4.68;;;11.30;99.90;;;;;;10204588;28;20218;-69
2024/03/13 08:15:22;;;;;;;5.30;4.80;;;11.30;99.90;;;;;;10199025;28;20284;-68
2024/03/13 08:20:45;;;;;;;7.85;6.28;;;11.40;99.90;;;;;;10218313;28;20261;-69
2024/03/13 08:26:07;;;;;;;9.18;6.63;;;11.40;99.90;;;;;;10201763;28;20281;-69
2024/03/13 08:31:28;;;;;;;10.85;8.00;;;11.40;99.90;;;;;;10200128;28;20344;-69
2024/03/13 08:36:49;;;;;;;8.10;7.30;;;11.40;99.90;;;;;;10208083;28;20375;-68
2024/03/13 08:42:11;;;;;;;7.78;7.05;;;11.50;99.90;;;;;;10210957;28;20797;-70
2024/03/13 08:47:32;;;;;;;8.25;6.28;;;11.50;99.90;;;;;;10197883;28;21657;-67
2024/03/13 08:52:53;;;;;;;8.55;5.97;;;11.50;99.90;;;;;;10208039;28;20233;-68
2024/03/13 08:58:14;;;;;;;5.97;5.45;;;11.60;99.90;;;;;;10201887;28;20275;-68
2024/03/13 09:03:36;;;;;;;7.22;6.03;;;11.60;99.90;;;;;;10207114;28;21358;-68
2024/03/13 09:08:58;;;;;;;8.73;7.32;;;11.70;99.90;;;;;;10205668;28;20312;-66
2024/03/13 09:14:03;;;;;;;7.07;5.28;;;11.70;99.90;;;;;;10205787;28;20214;-68
2024/03/13 09:19:07;;;;;;;7.30;5.55;;;11.70;99.90;;;;;;10197267;28;20234;-68
2024/03/13 09:24:11;;;;;;;4.90;4.30;;;11.80;99.90;;;;;;10212863;28;21664;-68
2024/03/13 09:29:15;;;;;;;5.80;4.40;;;11.80;99.90;;;;;;10210437;28;20366;-68
2024/03/13 09:34:19;;;;;;;6.43;4.55;;;11.90;99.90;;;;;;10198436;28;20480;-67
2024/03/13 09:39:24;;;;;;;5.32;4.65;;;11.90;99.90;;;;;;10196345;28;20309;-67
2024/03/13 09:44:29;;;;;;;7.15;5.18;;;12.00;99.90;;;;;;10213502;28;20214;-67
2024/03/13 09:49:33;;;;;;;4.28;3.88;;;12.00;99.90;;;;;;10206168;28;20582;-69
2024/03/13 09:54:36;;;;;;;4.72;4.22;;;12.00;99.90;;;;;;10208073;28;20234;-65
2024/03/13 09:59:41;;;;;;;5.57;4.72;;;12.10;99.90;;;;;;10197249;28;20234;-68
2024/03/13 10:04:45;;;;;;;7.93;6.15;;;12.10;99.90;;;;;;10208360;28;20210;-69
2024/03/13 10:09:49;;;;;;;8.57;6.78;;;12.10;99.90;;;;;;10209876;28;21506;-69
2024/03/13 10:14:52;;;;;;;9.70;7.82;;;12.20;99.90;;;;;;10212495;28;20206;-68
2024/03/13 10:19:56;;;;;;;10.98;8.95;;;12.20;99.90;;;;;;10201560;28;20701;-67
2024/03/13 10:25:00;;;;;;;13.50;9.30;;;12.20;99.90;;;;;;10196153;28;20210;-68
2024/03/13 10:30:04;;;;;;;17.10;11.52;;;12.20;99.90;;;;;;10202290;28;20202;-67
2024/03/13 10:35:09;;;;;;;15.45;11.27;;;12.20;99.90;;;;;;10203444;28;20292;-69
2024/03/13 10:40:14;;;;;;;17.75;13.52;;;12.20;99.90;;;;;;10203200;28;20230;-68
2024/03/13 10:45:18;;;;;;;17.77;13.40;;;12.30;99.90;;;;;;10202284;28;20230;-70
2024/03/13 10:50:21;;;;;;;19.73;14.65;;;12.30;99.90;;;;;;10219928;28;20745;-68
2024/03/13 10:55:27;;;;;;;21.65;15.00;;;12.30;99.90;;;;;;10201687;28;20229;-68
2024/03/13 11:00:31;;;;;;;22.35;16.65;;;12.30;99.90;;;;;;10208029;28;20211;-66
2024/03/13 11:05:37;;;;;;;26.83;18.65;;;12.30;99.90;;;;;;10195540;28;20226;-69
2024/03/13 11:10:41;;;;;;;26.83;18.70;;;12.30;99.90;;;;;;10198484;28;20241;-67
2024/03/13 11:15:45;;;;;;;28.65;19.77;;;12.30;99.90;;;;;;10194973;28;20225;-67
2024/03/13 11:20:50;;;;;;;29.65;21.23;;;12.30;99.90;;;;;;10197190;28;20297;-67
2024/03/13 11:25:54;;;;;;;28.23;19.65;;;12.40;99.90;;;;;;10201187;28;20336;-67
2024/03/13 11:30:58;;;;;;;25.92;18.58;;;12.50;99.90;;;;;;10209174;28;21461;-68
2024/03/13 11:36:03;;;;;;;26.40;20.30;;;12.60;99.90;;;;;;10206180;28;20255;-64
2024/03/13 11:41:06;;;;;;;29.23;21.60;;;12.60;99.90;;;;;;10194272;28;20634;-67
2024/03/13 11:46:11;;;;;;;30.08;21.15;;;12.60;99.90;;;;;;10190461;28;21235;-66
2024/03/13 11:51:15;;;;;;;23.90;18.23;;;12.60;99.90;;;;;;10200396;28;20210;-68
2024/03/13 11:56:20;;;;;;;23.67;18.40;;;12.70;99.90;;;;;;10196146;28;20364;-67
2024/03/13 12:01:24;;;;;;;20.00;16.35;;;12.70;99.90;;;;;;10201572;28;20206;-71
2024/03/13 12:06:36;;;;;;;19.10;15.55;;;12.70;99.90;;;;;;10200031;28;20249;-66
2024/03/13 12:11:41;;;;;;;15.25;13.38;;;12.70;99.90;;;;;;10198892;28;20315;-68
2024/03/13 12:16:45;;;;;;;14.45;12.38;;;12.60;99.90;;;;;;10194168;28;20233;-68
2024/03/13 12:21:49;;;;;;;16.45;12.95;;;12.60;99.90;;;;;;10196319;28;20217;-69
2024/03/13 12:26:53;;;;;;;15.43;12.43;;;12.60;99.90;;;;;;10193931;28;21370;-68
2024/03/13 12:31:57;;;;;;;15.13;12.63;;;12.60;99.90;;;;;;10192259;28;20304;-68
2024/03/13 12:37:01;;;;;;;15.15;12.68;;;12.60;99.90;;;;;;10186854;28;20230;-67
2024/03/13 12:42:06;;;;;;;13.45;10.95;;;12.60;99.90;;;;;;10191191;28;20237;-66
2024/03/13 12:47:12;;;;;;;11.68;9.73;;;12.70;99.90;;;;;;10179458;28;20234;-67
2024/03/13 12:52:17;;;;;;;12.27;9.20;;;12.80;99.90;;;;;;10195192;28;20218;-68
2024/03/13 12:57:21;;;;;;;13.85;11.32;;;12.90;99.90;;;;;;10194215;28;20229;-67
2024/03/13 13:02:25;;;;;;;13.10;11.55;;;12.90;99.90;;;;;;10194813;28;20210;-68
2024/03/13 13:07:28;;;;;;;12.45;9.63;;;12.80;99.90;;;;;;10196064;28;20269;-67
2024/03/13 13:12:32;;;;;;;11.50;9.93;;;12.70;99.90;;;;;;10198525;28;20297;-68
2024/03/13 13:17:36;;;;;;;12.70;10.02;;;12.70;99.90;;;;;;10186407;28;21563;-68
2024/03/13 13:22:41;;;;;;;11.38;10.05;;;12.70;99.90;;;;;;10201013;28;20269;-66
2024/03/13 13:27:46;;;;;;;11.02;8.70;;;12.70;99.90;;;;;;10196813;28;21769;-68
2024/03/13 13:32:50;;;;;;;11.75;8.20;;;12.70;99.90;;;;;;10215164;28;20925;-65
2024/03/13 13:37:54;;;;;;;14.20;10.80;;;12.70;99.90;;;;;;10258646;23;20252;-65
2024/03/13 13:42:58;;;;;;;16.27;12.55;;;12.60;99.90;;;;;;10287764;28;20225;-66
2024/03/13 13:48:01;;;;;;;14.15;11.35;;;12.60;99.90;;;;;;10271369;28;20221;-65
2024/03/13 13:53:07;;;;;;;14.57;11.15;;;12.60;99.90;;;;;;10268100;28;21396;-65
2024/03/13 13:58:11;;;;;;;13.02;10.98;;;12.60;99.90;;;;;;10283831;28;20233;-65
2024/03/13 14:03:14;;;;;;;14.70;11.93;;;12.60;99.90;;;;;;10268739;28;20213;-65
2024/03/13 14:08:19;;;;;;;15.45;11.77;;;12.60;99.90;;;;;;10266482;28;21444;-65
2024/03/13 14:13:23;;;;;;;12.18;10.88;;;12.60;99.90;;;;;;10271728;28;20217;-65
2024/03/13 14:18:27;;;;;;;14.25;11.35;;;12.60;99.90;;;;;;10271389;28;20232;-66
2024/03/13 14:23:31;;;;;;;13.15;11.00;;;12.70;99.90;;;;;;10270430;28;20287;-65
2024/03/13 14:28:35;;;;;;;13.05;9.95;;;12.80;99.90;;;;;;10284135;28;20233;-65
2024/03/13 14:33:39;;;;;;;14.55;10.70;;;12.80;99.90;;;;;;10271693;28;20213;-66
2024/03/13 14:38:44;;;;;;;12.18;9.82;;;12.80;99.90;;;;;;10283946;28;20233;-67
2024/03/13 14:43:47;;;;;;;12.65;9.63;;;12.90;99.90;;;;;;10270997;28;20280;-66
2024/03/13 14:48:51;;;;;;;15.25;11.50;;;12.90;99.90;;;;;;10300266;28;20246;-67
2024/03/13 14:53:55;;;;;;;14.43;12.10;;;12.90;99.90;;;;;;10262805;28;21886;-66
2024/03/13 14:59:00;;;;;;;13.80;12.15;;;12.90;99.90;;;;;;10281060;28;20232;-67
2024/03/13 15:04:04;;;;;;;12.82;11.52;;;12.90;99.90;;;;;;10282296;28;20205;-67
2024/03/13 15:09:12;;;;;;;11.73;10.25;;;12.90;99.90;;;;;;10264930;28;20220;-67
2024/03/13 15:14:17;;;;;;;11.38;8.32;;;12.90;99.90;;;;;;10284445;28;20286;-68
2024/03/13 15:19:21;;;;;;;11.57;8.68;;;12.90;99.90;;;;;;10268198;28;20264;-66
2024/03/13 15:24:25;;;;;;;11.13;8.20;;;12.90;99.90;;;;;;10267196;28;20237;-66
2024/03/13 15:29:29;;;;;;;14.13;7.93;;;12.90;99.90;;;;;;10263756;28;20784;-66
2024/03/13 15:34:32;;;;;;;9.02;7.13;;;12.90;99.90;;;;;;10281639;28;20649;-66
2024/03/13 15:39:36;;;;;;;10.05;6.80;;;12.90;99.90;;;;;;10263181;28;20319;-66
2024/03/13 15:44:40;;;;;;;7.88;6.70;;;12.90;99.90;;;;;;10266273;28;20213;-66
2024/03/13 15:49:43;;;;;;;9.60;7.93;;;12.90;99.90;;;;;;10262953;28;20299;-67
2024/03/13 15:54:47;;;;;;;9.68;8.45;;;12.90;99.90;;;;;;10260523;28;20286;-67
2024/03/13 15:59:51;;;;;;;11.93;9.20;;;12.90;99.90;;;;;;10259686;28;22231;-67
2024/03/13 16:04:56;;;;;;;10.98;9.02;;;12.90;99.90;;;;;;10263323;28;20205;-67
2024/03/13 16:10:00;;;;;;;9.57;8.02;;;12.90;99.90;;;;;;10278022;28;20229;-67
2024/03/13 16:15:05;;;;;;;10.38;6.93;;;12.90;99.90;;;;;;10280951;28;21637;-68
2024/03/13 16:20:10;;;;;;;8.30;6.25;;;12.90;99.90;;;;;;10264983;28;20228;-68
2024/03/13 16:25:18;;;;;;;10.73;6.63;;;12.80;99.90;;;;;;10230535;28;20267;-68
2024/03/13 16:30:23;;;;;;;9.68;6.38;;;12.90;99.90;;;;;;10265007;28;20232;-68
2024/03/13 16:35:27;;;;;;;8.05;6.05;;;12.90;99.90;;;;;;10300644;28;20953;-69
2024/03/13 16:40:31;;;;;;;7.72;6.07;;;12.90;99.90;;;;;;10268602;28;20237;-70
2024/03/13 16:45:35;;;;;;;7.13;5.80;;;12.90;99.90;;;;;;10270237;28;20212;-66
2024/03/13 16:50:39;;;;;;;7.57;5.20;;;12.90;99.90;;;;;;10257588;28;20283;-64
2024/03/13 16:55:43;;;;;;;7.38;5.68;;;12.90;99.90;;;;;;10256104;28;20738;-62
2024/03/13 17:00:51;;;;;;;8.13;5.50;;;12.90;99.90;;;;;;10261872;28;20796;-63
2024/03/13 17:05:55;;;;;;;6.13;5.00;;;12.90;99.90;;;;;;10259753;28;20235;-63
2024/03/13 17:10:59;;;;;;;8.80;6.05;;;12.90;99.90;;;;;;10261959;28;21454;-63
2024/03/13 17:16:03;;;;;;;7.55;5.22;;;12.80;99.90;;;;;;10275165;28;20205;-62
2024/03/13 17:21:10;;;;;;;10.75;6.30;;;12.80;99.90;;;;;;10276065;28;20286;-63
2024/03/13 17:26:14;;;;;;;9.27;6.32;;;12.80;99.90;;;;;;10240076;28;20600;-63
2024/03/13 17:31:18;;;;;;;9.43;6.65;;;12.80;99.90;;;;;;10277640;28;20252;-63
2024/03/13 17:36:22;;;;;;;9.90;5.93;;;12.80;99.90;;;;;;10278420;28;20307;-62
2024/03/13 17:41:27;;;;;;;11.90;6.78;;;12.80;99.90;;;;;;10255818;28;20229;-61
2024/03/13 17:46:30;;;;;;;7.07;6.20;;;12.80;99.90;;;;;;10265689;28;21210;-62
2024/03/13 17:51:34;;;;;;;6.97;5.50;;;12.80;99.90;;;;;;10265585;28;20201;-63
2024/03/13 17:56:38;;;;;;;11.18;6.25;;;12.80;99.90;;;;;;10268248;28;20241;-64
2024/03/13 18:01:45;;;;;;;8.23;6.25;;;12.80;99.90;;;;;;10264714;28;20225;-64
2024/03/13 18:06:49;;;;;;;7.50;5.15;;;12.80;99.90;;;;;;10269087;28;20224;-65
2024/03/13 18:11:53;;;;;;;6.07;5.38;;;12.80;99.90;;;;;;10268768;28;20205;-64
2024/03/13 18:16:57;;;;;;;9.48;5.72;;;12.80;99.90;;;;;;10267525;28;20267;-64
2024/03/13 18:22:01;;;;;;;7.93;5.82;;;12.80;99.90;;;;;;10264727;28;20225;-65
2024/03/13 18:27:06;;;;;;;8.48;5.60;;;12.80;99.90;;;;;;10267932;28;20299;-64
2024/03/13 18:32:10;;;;;;;6.32;5.70;;;12.80;99.90;;;;;;10267193;28;20201;-64
2024/03/13 18:37:14;;;;;;;6.90;5.32;;;12.80;99.90;;;;;;10266582;28;20232;-64
2024/03/13 18:42:17;;;;;;;8.25;4.85;;;12.80;99.90;;;;;;10274583;28;20233;-64
2024/03/13 18:47:21;;;;;;;5.97;4.90;;;12.80;99.90;;;;;;10264618;28;20229;-64
2024/03/13 18:52:25;;;;;;;6.65;5.10;;;12.80;99.90;;;;;;10267494;28;21911;-64
2024/03/13 18:57:29;;;;;;;6.78;5.53;;;12.80;99.90;;;;;;10265197;28;20228;-63
2024/03/13 19:02:33;;;;;;;5.72;5.03;;;12.80;99.90;;;;;;10266696;28;21797;-64
2024/03/13 19:07:37;;;;;;;6.22;4.70;;;12.70;99.90;;;;;;10265002;28;20229;-64
2024/03/13 19:12:40;;;;;;;6.75;4.47;;;12.70;99.90;;;;;;10283486;28;20209;-64
2024/03/13 19:17:44;;;;;;;5.28;4.78;;;12.70;99.90;;;;;;10266751;28;20233;-64
2024/03/13 19:22:48;;;;;;;5.18;4.68;;;12.70;99.90;;;;;;10264318;28;20229;-64
2024/03/13 19:27:52;;;;;;;5.60;4.68;;;12.70;99.90;;;;;;10264862;28;20232;-62
2024/03/13 19:32:55;;;;;;;4.95;3.97;;;12.70;99.90;;;;;;10264338;28;20278;-62
2024/03/13 19:37:59;;;;;;;5.07;4.57;;;12.70;99.90;;;;;;10264615;28;20321;-62
2024/03/13 19:43:04;;;;;;;5.15;4.65;;;12.70;99.90;;;;;;10263724;28;21873;-63
2024/03/13 19:48:07;;;;;;;5.45;4.95;;;12.70;99.90;;;;;;10264295;28;20361;-62
2024/03/13 19:53:11;;;;;;;6.20;5.45;;;12.70;99.90;;;;;;10262099;28;20228;-62
2024/03/13 19:58:15;;;;;;;7.32;5.72;;;12.80;99.90;;;;;;10261607;28;22067;-61
2024/03/13 20:03:18;;;;;;;5.53;5.03;;;12.80;99.90;;;;;;10265713;28;20228;-61
2024/03/13 20:08:22;;;;;;;4.15;3.72;;;12.80;99.90;;;;;;10262908;28;20256;-61
2024/03/13 20:13:27;;;;;;;4.15;3.75;;;12.80;99.90;;;;;;10264807;28;20228;-62
2024/03/13 20:18:30;;;;;;;4.22;3.83;;;12.80;99.90;;;;;;10276485;28;20224;-61
2024/03/13 20:23:34;;;;;;;4.60;3.40;;;12.80;99.90;;;;;;10263391;28;20229;-63
2024/03/13 20:28:39;;;;;;;3.67;3.38;;;12.70;99.90;;;;;;10251451;28;20233;-63
2024/03/13 20:33:43;;;;;;;5.72;4.40;;;12.70;99.90;;;;;;10279947;28;20278;-63
2024/03/13 20:38:47;;;;;;;3.95;3.55;;;12.70;99.90;;;;;;10277890;28;20327;-62
2024/03/13 20:43:50;;;;;;;5.13;3.70;;;12.70;99.90;;;;;;10263953;28;20229;-62
2024/03/13 20:48:54;;;;;;;3.97;3.58;;;12.70;99.90;;;;;;10261449;28;21679;-64
2024/03/13 20:53:58;;;;;;;5.25;4.03;;;12.70;99.90;;;;;;10263953;28;20201;-64
2024/03/13 20:59:03;;;;;;;6.63;4.20;;;12.70;99.90;;;;;;10280040;28;20228;-64
2024/03/13 21:04:06;;;;;;;5.40;4.88;;;12.70;99.90;;;;;;10265146;28;20224;-64
2024/03/13 21:09:10;;;;;;;4.85;4.35;;;12.70;99.90;;;;;;10259906;28;20233;-64
2024/03/13 21:14:14;;;;;;;5.18;4.68;;;12.70;99.90;;;;;;10264395;28;20320;-64
2024/03/13 21:19:19;;;;;;;5.65;5.10;;;12.70;99.90;;;;;;10269333;28;20236;-63
2024/03/13 21:24:23;;;;;;;6.68;5.03;;;12.60;99.90;;;;;;10270213;28;20217;-63
2024/03/13 21:29:27;;;;;;;6.55;5.22;;;12.60;99.90;;;;;;10269534;28;20323;-63
2024/03/13 21:34:31;;;;;;;6.05;5.45;;;12.60;99.90;;;;;;10270156;28;20209;-63
2024/03/13 21:39:41;;;;;;;6.55;5.90;;;12.60;99.90;;;;;;10269674;28;20397;-64
2024/03/13 21:44:45;;;;;;;9.23;5.50;;;12.60;99.90;;;;;;10280364;28;20224;-64
2024/03/13 21:49:49;;;;;;;6.15;5.25;;;12.60;99.90;;;;;;10282362;28;20245;-64
2024/03/13 21:54:54;;;;;;;5.53;5.00;;;12.60;99.90;;;;;;10276930;28;20209;-66
2024/03/13 21:59:58;;;;;;;6.95;4.70;;;12.60;99.90;;;;;;10293779;28;20228;-66
2024/03/13 22:05:03;;;;;;;6.22;5.68;;;12.60;99.90;;;;;;10283415;28;20916;-66
2024/03/13 22:10:08;;;;;;;6.13;5.53;;;12.60;99.90;;;;;;10281639;28;20295;-66
2024/03/13 22:15:14;;;;;;;6.40;5.70;;;12.60;99.90;;;;;;10277489;28;20205;-66
2024/03/13 22:20:18;;;;;;;7.13;5.60;;;12.60;99.90;;;;;;10279495;28;20229;-66
2024/03/13 22:25:22;;;;;;;6.55;5.60;;;12.60;99.90;;;;;;10275967;28;20209;-67
2024/03/13 22:30:26;;;;;;;7.95;5.50;;;12.60;99.90;;;;;;10277389;28;20267;-66
2024/03/13 22:35:30;;;;;;;6.32;5.00;;;12.60;99.90;;;;;;10281243;28;20731;-65
2024/03/13 22:40:33;;;;;;;7.95;5.45;;;12.60;99.90;;;;;;10278982;28;21681;-65
2024/03/13 22:45:37;;;;;;;6.70;5.57;;;12.60;99.90;;;;;;10282770;28;21338;-65
2024/03/13 22:50:41;;;;;;;7.15;4.85;;;12.60;99.90;;;;;;10274398;28;20221;-65
2024/03/13 22:55:45;;;;;;;7.03;4.90;;;12.60;99.90;;;;;;10275625;28;20629;-65
2024/03/13 23:00:57;;;;;;;6.85;4.68;;;12.60;99.90;;;;;;10272506;28;20229;-65
2024/03/13 23:06:03;;;;;;;6.82;4.65;;;12.60;99.90;;;;;;10271161;28;21267;-66
2024/03/13 23:11:07;;;;;;;7.10;4.63;;;12.50;99.90;;;;;;10272707;28;20205;-66
2024/03/13 23:16:11;;;;;;;5.38;4.88;;;12.60;99.90;;;;;;10288525;28;20212;-64
2024/03/13 23:21:19;;;;;;;5.07;4.57;;;12.60;99.90;;;;;;10273297;28;20592;-65
2024/03/13 23:26:23;;;;;;;6.40;4.80;;;12.60;99.90;;;;;;10275158;28;20228;-65
2024/03/13 23:31:27;;;;;;;5.88;4.35;;;12.50;99.90;;;;;;10290596;28;20209;-65
2024/03/13 23:36:31;;;;;;;6.63;4.95;;;12.60;99.90;;;;;;10276991;28;20233;-65
2024/03/13 23:41:35;;;;;;;5.95;4.22;;;12.60;99.90;;;;;;10280244;28;20712;-65
2024/03/13 23:46:38;;;;;;;5.00;3.97;;;12.60;99.90;;;;;;10281391;28;20224;-65
2024/03/13 23:51:42;;;;;;;4.85;4.35;;;12.60;99.90;;;;;;10283927;28;20298;-65
2024/03/13 23:56:46;;;;;;;6.10;4.30;;;12.60;99.90;;;;;;10275478;28;21357;-65
